createdAt,value
2023-02-11T00:01:35.044Z,99911.47
2023-02-11T00:04:07.018Z,99906.63
2023-02-11T00:06:36.107Z,99913.97
2023-02-11T00:09:03.704Z,99906.97
2023-02-11T00:11:32.234Z,99904.75
2023-02-11T00:14:05.039Z,99900.28
2023-02-11T00:16:32.469Z,99903.03
2023-02-11T00:19:08.106Z,99891.53
2023-02-11T00:21:34.916Z,99884.66
2023-02-11T00:24:02.345Z,99890.16
2023-02-11T00:26:34.038Z,99890.50
2023-02-11T00:29:01.458Z,99889.81
2023-02-11T00:31:28.387Z,99883.19
2023-02-11T00:34:01.852Z,99883.19
2023-02-11T00:36:29.834Z,99888.94
2023-02-11T00:38:57.551Z,99875.41
2023-02-11T00:41:24.987Z,99877.81
2023-02-11T00:43:52.040Z,99873.56
2023-02-11T00:46:18.569Z,99871.28
2023-02-11T00:48:45.393Z,99864.59
2023-02-11T00:51:12.022Z,99864.00
2023-02-11T00:53:38.880Z,99866.66
2023-02-11T00:56:07.672Z,99860.34
2023-02-11T00:58:34.822Z,99857.22
2023-02-11T01:01:01.518Z,99853.09
2023-02-11T01:03:30.312Z,99848.28
2023-02-11T01:05:58.776Z,99844.00
2023-02-11T01:08:25.475Z,99845.41
2023-02-11T01:11:02.265Z,99838.94
2023-02-11T01:13:30.385Z,99834.59
2023-02-11T01:15:57.661Z,99841.59
2023-02-11T01:18:26.687Z,99845.25
2023-02-11T01:20:54.164Z,99836.75
2023-02-11T01:23:21.324Z,99823.41
2023-02-11T01:25:54.525Z,99822.94
2023-02-11T01:28:26.664Z,99824.56
2023-02-11T01:30:53.931Z,99824.56
2023-02-11T01:33:23.263Z,99818.69
2023-02-11T01:35:50.425Z,99814.88
2023-02-11T01:38:23.038Z,99808.91
2023-02-11T01:40:56.809Z,99812.38
2023-02-11T01:43:24.391Z,99815.25
2023-02-11T01:45:57.236Z,99824.41
2023-02-11T01:48:37.584Z,99815.66
2023-02-11T01:51:12.482Z,99813.03
2023-02-11T01:53:59.134Z,99815.09
2023-02-11T01:56:47.228Z,99821.28
2023-02-11T01:59:27.148Z,99817.19
2023-02-11T02:07:17.440Z,99802.56
2023-02-11T02:09:52.726Z,99798.78
2023-02-11T02:12:21.566Z,99789.22
2023-02-11T02:14:48.250Z,99785.19
2023-02-11T02:17:38.669Z,99781.06
2023-02-11T02:20:34.101Z,99778.88
2023-02-11T02:23:31.513Z,99774.84
2023-02-11T02:26:19.963Z,99768.56
2023-02-11T02:29:12.397Z,99765.69
2023-02-11T02:31:51.193Z,99769.72
2023-02-11T02:34:41.428Z,99771.66
2023-02-11T02:37:38.551Z,99768.34
2023-02-11T02:40:12.338Z,99765.91
2023-02-11T02:42:41.103Z,99763.41
2023-02-11T02:45:09.166Z,99769.50
2023-02-11T02:47:37.487Z,99778.91
2023-02-11T02:50:08.331Z,99788.91
2023-02-11T02:52:40.750Z,99797.84
2023-02-11T02:55:25.976Z,99796.25
2023-02-11T02:58:03.517Z,99788.34
2023-02-11T03:00:53.370Z,99792.63
2023-02-11T03:03:55.537Z,99790.16
2023-02-11T03:06:39.706Z,99790.84
2023-02-11T03:09:11.362Z,99784.88
2023-02-11T03:11:39.982Z,99785.78
2023-02-11T03:14:12.910Z,99778.19
2023-02-11T03:16:43.579Z,99774.38
2023-02-11T03:19:20.358Z,99772.66
2023-02-11T03:21:49.727Z,99765.88
2023-02-11T03:24:26.193Z,99765.44
2023-02-11T03:26:56.492Z,99763.34
2023-02-11T03:29:39.354Z,99752.78
2023-02-11T03:32:18.074Z,99745.69
2023-02-11T03:35:15.595Z,99747.50
2023-02-11T03:37:57.578Z,99746.00
2023-02-11T03:40:31.518Z,99756.91
2023-02-11T03:43:17.153Z,99745.84
2023-02-11T03:45:46.241Z,99743.28
2023-02-11T03:48:18.350Z,99750.44
2023-02-11T03:50:46.808Z,99755.56
2023-02-11T03:53:20.388Z,99751.31
2023-02-11T03:55:49.599Z,99746.41
2023-02-11T03:58:16.320Z,99744.53
2023-02-11T04:00:45.549Z,99747.19
2023-02-11T04:03:13.274Z,99741.41
2023-02-11T04:05:43.450Z,99738.94
2023-02-11T04:08:14.527Z,99736.25
2023-02-11T04:10:41.200Z,99744.84
2023-02-11T04:13:07.678Z,99751.94
2023-02-11T04:15:40.515Z,99750.94
2023-02-11T04:18:07.036Z,99749.31
2023-02-11T04:20:33.668Z,99747.94
2023-02-11T04:23:02.379Z,99753.78
2023-02-11T04:25:29.236Z,99747.50
2023-02-11T04:27:55.930Z,99744.03
2023-02-11T04:30:29.031Z,99758.13
2023-02-11T04:32:55.489Z,99756.50
2023-02-11T04:35:21.969Z,99757.56
2023-02-11T04:37:48.695Z,99766.09
2023-02-11T04:40:15.481Z,99756.81
2023-02-11T04:42:45.308Z,99760.03
2023-02-11T04:45:13.564Z,99756.66
2023-02-11T04:47:40.142Z,99755.66
2023-02-11T04:50:06.877Z,99744.22
2023-02-11T04:52:33.567Z,99748.69
2023-02-11T04:55:03.544Z,99746.69
2023-02-11T04:57:30.109Z,99743.25
2023-02-11T04:59:56.727Z,99748.31
2023-02-11T05:02:23.468Z,99747.97
2023-02-11T05:04:49.982Z,99761.34
2023-02-11T05:07:18.245Z,99751.84
2023-02-11T05:09:44.802Z,99759.19
2023-02-11T05:12:12.951Z,99753.66
2023-02-11T05:14:41.310Z,99762.66
2023-02-11T05:17:08.212Z,99763.78
2023-02-11T05:19:34.689Z,99767.09
2023-02-11T05:22:03.325Z,99759.06
2023-02-11T05:24:32.111Z,99760.06
2023-02-11T05:26:58.653Z,99765.28
2023-02-11T05:29:25.369Z,99763.97
2023-02-11T05:31:51.819Z,99751.16
2023-02-11T05:34:20.306Z,99758.84
2023-02-11T05:36:46.927Z,99757.56
2023-02-11T05:39:13.374Z,99760.41
2023-02-11T05:41:39.856Z,99764.50
2023-02-11T05:44:14.320Z,99779.06
2023-02-11T05:46:40.854Z,99786.41
2023-02-11T05:49:07.497Z,99778.94
2023-02-11T05:51:34.118Z,99796.81
2023-02-11T05:54:00.635Z,99795.78
2023-02-11T05:56:29.015Z,99794.16
2023-02-11T05:58:55.651Z,99794.03
2023-02-11T06:01:22.116Z,99800.50
2023-02-11T06:03:50.158Z,99812.22
2023-02-11T06:06:17.723Z,99806.28
2023-02-11T06:08:44.255Z,99806.34
2023-02-11T06:11:10.705Z,99795.56
2023-02-11T06:13:39.452Z,99796.06
2023-02-11T06:16:06.161Z,99803.22
2023-02-11T06:18:33.716Z,99795.25
2023-02-11T06:21:02.257Z,99769.66
2023-02-11T06:23:30.415Z,99760.34
2023-02-11T06:26:02.639Z,99774.00
2023-02-11T06:28:31.477Z,99769.16
2023-02-11T06:30:59.439Z,99771.00
2023-02-11T06:33:26.042Z,99765.72
2023-02-11T06:35:52.904Z,99779.13
2023-02-11T06:38:19.524Z,99771.56
2023-02-11T06:40:50.175Z,99771.13
2023-02-11T06:43:17.551Z,99768.50
2023-02-11T06:45:44.550Z,99757.34
2023-02-11T06:48:11.037Z,99763.56
2023-02-11T06:50:40.520Z,99767.84
2023-02-11T06:53:07.067Z,99764.28
2023-02-11T06:55:35.883Z,99774.94
2023-02-11T06:58:10.531Z,99779.28
2023-02-11T07:00:40.600Z,99785.81
2023-02-11T07:03:07.145Z,99795.31
2023-02-11T07:05:41.432Z,99794.53
2023-02-11T07:08:07.953Z,99786.53
2023-02-11T07:10:34.421Z,99784.59
2023-02-11T07:13:02.701Z,99785.84
2023-02-11T07:15:29.260Z,99791.81
2023-02-11T07:17:55.948Z,99800.69
2023-02-11T07:20:22.437Z,99800.56
2023-02-11T07:22:48.901Z,99793.88
2023-02-11T07:25:15.714Z,99796.50
2023-02-11T07:27:44.433Z,99794.31
2023-02-11T07:30:11.856Z,99788.34
2023-02-11T07:32:38.371Z,99784.81
2023-02-11T07:35:07.540Z,99771.09
2023-02-11T07:37:35.463Z,99763.53
2023-02-11T07:40:02.318Z,99759.84
2023-02-11T07:42:28.799Z,99759.94
2023-02-11T07:44:55.301Z,99773.91
2023-02-11T07:47:21.792Z,99772.91
2023-02-11T07:49:50.086Z,99761.81
2023-02-11T07:52:16.611Z,99768.47
2023-02-11T07:54:43.124Z,99774.91
2023-02-11T19:12:21.270Z,99699.03
2023-02-11T19:14:47.838Z,99702.22
2023-02-11T19:17:14.332Z,99699.53
2023-02-11T19:19:41.288Z,99703.50
2023-02-11T19:22:10.584Z,99710.91
2023-02-11T19:24:37.989Z,99714.56
2023-02-11T19:27:11.930Z,99723.88
2023-02-11T19:29:38.652Z,99722.00
2023-02-11T19:32:07.951Z,99729.94
2023-02-11T19:34:41.120Z,99729.44
2023-02-11T19:37:12.751Z,99718.59
2023-02-11T19:39:40.356Z,99723.09
2023-02-11T19:42:11.456Z,99727.06
2023-02-11T19:44:38.387Z,99724.13
2023-02-11T19:47:05.061Z,99737.38
2023-02-11T19:49:31.530Z,99734.63
2023-02-11T19:51:58.385Z,99745.78
2023-02-11T19:54:29.316Z,99742.38
2023-02-11T19:56:59.550Z,99743.13
2023-02-11T19:59:26.697Z,99747.63
2023-02-11T20:01:53.887Z,99743.66
2023-02-11T20:04:22.351Z,99745.75
2023-02-11T20:06:49.291Z,99736.13
2023-02-11T20:09:19.791Z,99729.72
2023-02-11T20:11:46.316Z,99738.72
2023-02-11T20:14:14.879Z,99741.47
2023-02-11T20:16:48.617Z,99747.28
2023-02-11T20:19:20.424Z,99742.16
2023-02-11T20:21:48.820Z,99747.13
2023-02-11T20:24:17.419Z,99745.19
2023-02-11T20:26:47.377Z,99750.88
2023-02-11T20:29:15.569Z,99751.38
2023-02-11T20:31:42.148Z,99748.38
2023-02-11T20:34:10.156Z,99744.19
2023-02-11T20:36:38.660Z,99746.63
2023-02-11T20:39:06.241Z,99751.69
2023-02-11T20:41:46.205Z,99752.41
2023-02-11T20:44:13.683Z,99758.59
2023-02-11T20:46:43.576Z,99746.81
2023-02-11T20:49:12.016Z,99741.09
2023-02-11T20:51:38.834Z,99740.72
2023-02-11T20:54:06.347Z,99743.03
2023-02-11T20:56:36.024Z,99738.19
2023-02-11T20:59:05.184Z,99738.56
2023-02-11T21:01:34.602Z,99742.16
2023-02-11T21:04:04.249Z,99741.44
2023-02-11T21:06:36.716Z,99740.09
2023-02-11T21:09:07.378Z,99734.72
2023-02-11T21:11:36.300Z,99732.00
2023-02-11T21:14:02.776Z,99731.44
2023-02-11T21:16:29.700Z,99729.84
2023-02-11T21:18:56.872Z,99733.91
2023-02-11T21:21:23.912Z,99729.25
2023-02-11T21:23:50.695Z,99719.97
2023-02-11T21:26:17.307Z,99719.09
2023-02-11T21:28:44.639Z,99717.97
2023-02-11T21:31:29.346Z,99722.94
2023-02-11T21:33:56.884Z,99726.31
2023-02-11T21:36:23.853Z,99735.31
2023-02-11T21:38:50.633Z,99732.13
2023-02-11T21:41:19.212Z,99737.88
2023-02-11T21:43:45.880Z,99742.09
2023-02-11T21:46:16.245Z,99746.72
2023-02-11T21:48:43.244Z,99746.44
2023-02-11T21:51:14.800Z,99735.81
2023-02-11T21:53:41.642Z,99739.22
2023-02-11T21:56:13.790Z,99739.34
2023-02-11T21:58:40.678Z,99737.19
2023-02-11T22:01:15.967Z,99726.84
2023-02-11T22:03:43.033Z,99728.19
2023-02-11T22:06:11.388Z,99737.59
2023-02-11T22:08:39.339Z,99747.69
2023-02-11T22:11:08.798Z,99738.56
2023-02-11T22:13:36.987Z,99740.47
2023-02-11T22:16:12.549Z,99738.06
2023-02-11T22:18:47.880Z,99731.47
2023-02-11T22:21:19.244Z,99735.47
2023-02-11T22:23:46.491Z,99734.34
2023-02-11T22:26:19.178Z,99739.00
2023-02-11T22:28:48.188Z,99738.97
2023-02-11T22:31:18.286Z,99742.41
2023-02-11T22:33:45.762Z,99736.47
2023-02-11T22:36:28.212Z,99739.84
2023-02-11T22:38:55.416Z,99742.09
2023-02-11T22:41:22.585Z,99748.97
2023-02-11T22:43:49.608Z,99740.25
2023-02-11T22:46:18.130Z,99746.56
2023-02-11T22:48:45.406Z,99735.97
2023-02-11T22:51:22.392Z,99741.75
2023-02-11T22:53:57.247Z,99744.06
2023-02-11T22:56:24.962Z,99747.69
2023-02-11T22:58:53.696Z,99750.94
2023-02-11T23:01:22.265Z,99754.63
2023-02-11T23:03:48.906Z,99755.09
2023-02-11T23:06:16.424Z,99757.28
2023-02-11T23:08:45.185Z,99755.09
2023-02-11T23:11:20.116Z,99746.81
2023-02-11T23:13:49.608Z,99755.50
2023-02-11T23:16:25.158Z,99750.44
2023-02-11T23:18:52.775Z,99744.81
2023-02-11T23:21:23.101Z,99762.31
2023-02-11T23:23:55.388Z,99769.63
2023-02-11T23:26:23.789Z,99771.03
2023-02-11T23:28:50.592Z,99776.81
2023-02-11T23:31:34.209Z,99777.63
2023-02-11T23:34:01.728Z,99769.50
2023-02-11T23:36:28.800Z,99765.28
2023-02-11T23:38:57.286Z,99760.94
2023-02-11T23:41:25.806Z,99763.72
2023-02-11T23:43:54.807Z,99772.28
2023-02-11T23:46:22.267Z,99766.31
2023-02-11T23:48:49.392Z,99765.78
2023-02-11T23:51:15.991Z,99772.00
2023-02-11T23:53:42.824Z,99771.66
2023-02-11T23:56:13.725Z,99781.09
2023-02-11T23:58:40.435Z,99777.91
